sensor_id;sensor_type;location;lat;lon;timestamp;pressure;altitude;pressure_sealevel;temperature;humidity
18850;BME280;4989;48.772;9.154;2023-05-08T00:04:04;98239.59;;;18.59;100.00
18850;BME280;4989;48.772;9.154;2023-05-08T00:09:06;98249.97;;;18.40;100.00
18850;BME280;4989;48.772;9.154;2023-05-08T00:14:09;98238.72;;;18.28;100.00
18850;BME280;4989;48.772;9.154;2023-05-08T00:19:11;98249.88;;;17.92;100.00
18850;BME280;4989;48.772;9.154;2023-05-08T00:24:13;98245.47;;;18.18;100.00
18850;BME280;4989;48.772;9.154;2023-05-08T00:29:15;98242.47;;;18.64;100.00
18850;BME280;4989;48.772;9.154;2023-05-08T00:34:18;98247.69;;;18.86;100.00
18850;BME280;4989;48.772;9.154;2023-05-08T00:39:20;98252.84;;;19.08;100.00
18850;BME280;4989;48.772;9.154;2023-05-08T00:44:22;98245.63;;;19.11;100.00
18850;BME280;4989;48.772;9.154;2023-05-08T00:49:25;98243.16;;;18.98;100.00
18850;BME280;4989;48.772;9.154;2023-05-08T00:54:28;98253.44;;;19.12;100.00
18850;BME280;4989;48.772;9.154;2023-05-08T00:59:32;98263.13;;;19.22;100.00
18850;BME280;4989;48.772;9.154;2023-05-08T01:04:37;98270.53;;;19.16;100.00
18850;BME280;4989;48.772;9.154;2023-05-08T01:09:40;98260.03;;;18.91;100.00
18850;BME280;4989;48.772;9.154;2023-05-08T01:15:05;98257.22;;;18.52;100.00
18850;BME280;4989;48.772;9.154;2023-05-08T01:32:20;98263.53;;;18.19;100.00
18850;BME280;4989;48.772;9.154;2023-05-08T01:37:48;98272.97;;;18.18;100.00
18850;BME280;4989;48.772;9.154;2023-05-08T01:43:13;98266.72;;;17.66;100.00
18850;BME280;4989;48.772;9.154;2023-05-08T01:48:34;98273.66;;;17.43;100.00
18850;BME280;4989;48.772;9.154;2023-05-08T01:53:47;98273.69;;;17.34;100.00
18850;BME280;4989;48.772;9.154;2023-05-08T01:58:53;98266.78;;;17.48;100.00
18850;BME280;4989;48.772;9.154;2023-05-08T02:03:57;98273.78;;;17.67;100.00
18850;BME280;4989;48.772;9.154;2023-05-08T02:09:01;98275.88;;;17.72;100.00
18850;BME280;4989;48.772;9.154;2023-05-08T02:14:05;98283.19;;;17.84;100.00
18850;BME280;4989;48.772;9.154;2023-05-08T02:19:10;98276.81;;;17.69;100.00
18850;BME280;4989;48.772;9.154;2023-05-08T02:24:13;98276.53;;;17.67;100.00
18850;BME280;4989;48.772;9.154;2023-05-08T02:29:17;98279.56;;;17.78;100.00
18850;BME280;4989;48.772;9.154;2023-05-08T02:34:22;98280.19;;;17.82;100.00
18850;BME280;4989;48.772;9.154;2023-05-08T02:39:29;98285.94;;;17.75;100.00
18850;BME280;4989;48.772;9.154;2023-05-08T02:44:32;98291.44;;;17.75;100.00
18850;BME280;4989;48.772;9.154;2023-05-08T02:49:55;98287.03;;;17.87;100.00
18850;BME280;4989;48.772;9.154;2023-05-08T02:55:34;98293.34;;;18.45;100.00
18850;BME280;4989;48.772;9.154;2023-05-08T03:00:56;98283.56;;;18.44;100.00
18850;BME280;4989;48.772;9.154;2023-05-08T03:06:02;98287.47;;;18.61;100.00
18850;BME280;4989;48.772;9.154;2023-05-08T03:11:14;98277.88;;;18.47;100.00
18850;BME280;4989;48.772;9.154;2023-05-08T03:16:22;98280.19;;;18.49;100.00
18850;BME280;4989;48.772;9.154;2023-05-08T03:21:29;98282.72;;;18.62;100.00
18850;BME280;4989;48.772;9.154;2023-05-08T03:26:33;98278.81;;;18.77;100.00
18850;BME280;4989;48.772;9.154;2023-05-08T03:31:36;98281.94;;;18.61;100.00
18850;BME280;4989;48.772;9.154;2023-05-08T03:36:40;98281.25;;;18.75;100.00
18850;BME280;4989;48.772;9.154;2023-05-08T03:41:43;98282.34;;;18.69;100.00
18850;BME280;4989;48.772;9.154;2023-05-08T03:46:49;98286.66;;;18.61;100.00
18850;BME280;4989;48.772;9.154;2023-05-08T03:51:55;98288.38;;;18.58;100.00
18850;BME280;4989;48.772;9.154;2023-05-08T03:56:58;98286.53;;;18.64;100.00
18850;BME280;4989;48.772;9.154;2023-05-08T04:02:55;98295.19;;;18.72;100.00
18850;BME280;4989;48.772;9.154;2023-05-08T04:08:28;98289.13;;;18.92;100.00
18850;BME280;4989;48.772;9.154;2023-05-08T04:13:40;98295.03;;;18.75;100.00
18850;BME280;4989;48.772;9.154;2023-05-08T04:18:46;98296.34;;;18.56;100.00
18850;BME280;4989;48.772;9.154;2023-05-08T04:23:51;98308.16;;;18.47;100.00
18850;BME280;4989;48.772;9.154;2023-05-08T04:28:57;98306.47;;;18.17;100.00
18850;BME280;4989;48.772;9.154;2023-05-08T04:34:02;98313.91;;;17.92;100.00
18850;BME280;4989;48.772;9.154;2023-05-08T04:39:04;98312.22;;;17.95;100.00
18850;BME280;4989;48.772;9.154;2023-05-08T04:44:06;98316.38;;;18.23;100.00
18850;BME280;4989;48.772;9.154;2023-05-08T04:49:09;98321.66;;;18.36;100.00
18850;BME280;4989;48.772;9.154;2023-05-08T04:54:11;98324.13;;;18.67;100.00
18850;BME280;4989;48.772;9.154;2023-05-08T04:59:14;98328.06;;;18.75;100.00
18850;BME280;4989;48.772;9.154;2023-05-08T05:04:18;98332.38;;;18.76;100.00
18850;BME280;4989;48.772;9.154;2023-05-08T05:09:20;98334.75;;;18.17;100.00
18850;BME280;4989;48.772;9.154;2023-05-08T05:14:23;98337.63;;;17.80;100.00
18850;BME280;4989;48.772;9.154;2023-05-08T05:19:25;98344.91;;;17.93;100.00
18850;BME280;4989;48.772;9.154;2023-05-08T05:24:28;98353.66;;;18.34;100.00
18850;BME280;4989;48.772;9.154;2023-05-08T05:29:31;98342.63;;;18.43;100.00
18850;BME280;4989;48.772;9.154;2023-05-08T05:34:34;98352.03;;;18.51;100.00
18850;BME280;4989;48.772;9.154;2023-05-08T05:39:37;98348.53;;;18.84;100.00
18850;BME280;4989;48.772;9.154;2023-05-08T05:44:40;98351.53;;;18.95;100.00
18850;BME280;4989;48.772;9.154;2023-05-08T05:49:43;98356.75;;;18.93;100.00
18850;BME280;4989;48.772;9.154;2023-05-08T05:54:49;98350.09;;;18.75;100.00
18850;BME280;4989;48.772;9.154;2023-05-08T05:59:52;98351.22;;;18.93;100.00
18850;BME280;4989;48.772;9.154;2023-05-08T06:04:56;98355.09;;;19.10;100.00
18850;BME280;4989;48.772;9.154;2023-05-08T06:09:58;98353.84;;;19.11;100.00
18850;BME280;4989;48.772;9.154;2023-05-08T06:15:01;98358.72;;;19.16;100.00
18850;BME280;4989;48.772;9.154;2023-05-08T06:20:05;98359.03;;;18.94;100.00
18850;BME280;4989;48.772;9.154;2023-05-08T06:25:09;98359.03;;;18.94;100.00
18850;BME280;4989;48.772;9.154;2023-05-08T06:30:12;98362.25;;;18.93;100.00
18850;BME280;4989;48.772;9.154;2023-05-08T06:35:14;98364.13;;;18.87;100.00
18850;BME280;4989;48.772;9.154;2023-05-08T06:40:20;98363.44;;;19.01;100.00
18850;BME280;4989;48.772;9.154;2023-05-08T06:45:27;98379.28;;;19.06;100.00
18850;BME280;4989;48.772;9.154;2023-05-08T06:50:29;98372.22;;;19.14;100.00
18850;BME280;4989;48.772;9.154;2023-05-08T06:55:32;98372.50;;;19.16;100.00
18850;BME280;4989;48.772;9.154;2023-05-08T07:00:35;98376.78;;;19.17;100.00
18850;BME280;4989;48.772;9.154;2023-05-08T07:05:37;98378.28;;;19.04;100.00
18850;BME280;4989;48.772;9.154;2023-05-08T07:10:39;98383.47;;;18.77;100.00
18850;BME280;4989;48.772;9.154;2023-05-08T07:15:41;98380.06;;;18.83;100.00
18850;BME280;4989;48.772;9.154;2023-05-08T07:20:44;98378.09;;;19.07;100.00
18850;BME280;4989;48.772;9.154;2023-05-08T07:25:46;98380.91;;;19.22;100.00
18850;BME280;4989;48.772;9.154;2023-05-08T07:30:49;98383.91;;;19.09;100.00
18850;BME280;4989;48.772;9.154;2023-05-08T07:35:51;98387.75;;;19.03;100.00
18850;BME280;4989;48.772;9.154;2023-05-08T07:40:54;98392.50;;;19.26;100.00
18850;BME280;4989;48.772;9.154;2023-05-08T07:45:58;98392.84;;;19.43;100.00
18850;BME280;4989;48.772;9.154;2023-05-08T07:51:00;98399.56;;;19.66;100.00
18850;BME280;4989;48.772;9.154;2023-05-08T07:56:03;98399.41;;;19.60;100.00
18850;BME280;4989;48.772;9.154;2023-05-08T08:01:06;98399.47;;;19.36;100.00
18850;BME280;4989;48.772;9.154;2023-05-08T08:06:08;98394.25;;;19.14;100.00
18850;BME280;4989;48.772;9.154;2023-05-08T08:11:10;98394.06;;;18.94;100.00
18850;BME280;4989;48.772;9.154;2023-05-08T08:16:12;98396.63;;;19.07;100.00
18850;BME280;4989;48.772;9.154;2023-05-08T08:21:14;98398.75;;;19.03;100.00
18850;BME280;4989;48.772;9.154;2023-05-08T08:26:18;98400.97;;;18.56;100.00
18850;BME280;4989;48.772;9.154;2023-05-08T08:31:20;98407.63;;;18.40;100.00
18850;BME280;4989;48.772;9.154;2023-05-08T08:36:23;98412.34;;;18.30;100.00
18850;BME280;4989;48.772;9.154;2023-05-08T08:41:25;98405.91;;;18.52;100.00
18850;BME280;4989;48.772;9.154;2023-05-08T08:46:30;98414.69;;;18.65;100.00
18850;BME280;4989;48.772;9.154;2023-05-08T08:51:45;98412.41;;;18.64;100.00
18850;BME280;4989;48.772;9.154;2023-05-08T08:56:51;98412.06;;;18.38;100.00
18850;BME280;4989;48.772;9.154;2023-05-08T09:01:57;98425.50;;;18.36;100.00
18850;BME280;4989;48.772;9.154;2023-05-08T09:07:03;98419.91;;;18.12;100.00
18850;BME280;4989;48.772;9.154;2023-05-08T09:12:07;98420.06;;;17.25;100.00
18850;BME280;4989;48.772;9.154;2023-05-08T09:17:09;98421.59;;;17.45;100.00
18850;BME280;4989;48.772;9.154;2023-05-08T09:22:12;98421.59;;;17.26;100.00
18850;BME280;4989;48.772;9.154;2023-05-08T09:27:25;98419.75;;;17.42;100.00
18850;BME280;4989;48.772;9.154;2023-05-08T09:32:33;98416.81;;;17.08;100.00
18850;BME280;4989;48.772;9.154;2023-05-08T09:37:41;98412.25;;;17.24;100.00
18850;BME280;4989;48.772;9.154;2023-05-08T09:42:45;98412.16;;;17.82;100.00
18850;BME280;4989;48.772;9.154;2023-05-08T09:47:48;98422.53;;;17.88;100.00
18850;BME280;4989;48.772;9.154;2023-05-08T09:52:51;98429.25;;;17.50;100.00
18850;BME280;4989;48.772;9.154;2023-05-08T09:57:58;98427.41;;;17.74;100.00
18850;BME280;4989;48.772;9.154;2023-05-08T10:03:02;98421.53;;;18.27;100.00
18850;BME280;4989;48.772;9.154;2023-05-08T10:08:21;98424.28;;;18.46;100.00
18850;BME280;4989;48.772;9.154;2023-05-08T10:13:24;98418.97;;;18.66;100.00
18850;BME280;4989;48.772;9.154;2023-05-08T10:18:34;98423.03;;;18.47;100.00
18850;BME280;4989;48.772;9.154;2023-05-08T10:23:42;98426.13;;;18.30;100.00
18850;BME280;4989;48.772;9.154;2023-05-08T10:34:01;98426.19;;;18.03;100.00
18850;BME280;4989;48.772;9.154;2023-05-08T10:39:05;98421.13;;;18.11;100.00
18850;BME280;4989;48.772;9.154;2023-05-08T10:44:09;98414.81;;;18.38;100.00
18850;BME280;4989;48.772;9.154;2023-05-08T10:49:46;98418.47;;;18.35;100.00
18850;BME280;4989;48.772;9.154;2023-05-08T10:59:59;98417.25;;;19.35;100.00
18850;BME280;4989;48.772;9.154;2023-05-08T11:05:18;98410.41;;;19.70;100.00
18850;BME280;4989;48.772;9.154;2023-05-08T11:10:29;98418.19;;;20.25;100.00
18850;BME280;4989;48.772;9.154;2023-05-08T11:15:40;98408.50;;;22.28;100.00
18850;BME280;4989;48.772;9.154;2023-05-08T11:21:04;98403.59;;;23.29;98.00
18850;BME280;4989;48.772;9.154;2023-05-08T11:26:12;98411.72;;;25.52;82.99
18850;BME280;4989;48.772;9.154;2023-05-08T11:31:15;98403.97;;;25.34;79.19
18850;BME280;4989;48.772;9.154;2023-05-08T11:36:21;98397.91;;;25.77;74.16
18850;BME280;4989;48.772;9.154;2023-05-08T11:41:24;98390.19;;;23.99;86.60
18850;BME280;4989;48.772;9.154;2023-05-08T11:46:53;98392.72;;;23.97;81.63
18850;BME280;4989;48.772;9.154;2023-05-08T11:51:58;98381.13;;;24.49;82.79
18850;BME280;4989;48.772;9.154;2023-05-08T11:57:01;98391.13;;;25.08;77.77
18850;BME280;4989;48.772;9.154;2023-05-08T12:02:03;98384.16;;;24.29;81.51
18850;BME280;4989;48.772;9.154;2023-05-08T12:07:10;98377.72;;;23.55;83.16
18850;BME280;4989;48.772;9.154;2023-05-08T12:12:12;98389.97;;;25.51;75.71
18850;BME280;4989;48.772;9.154;2023-05-08T12:17:18;98382.53;;;25.18;74.83
18850;BME280;4989;48.772;9.154;2023-05-08T12:22:21;98393.94;;;25.03;73.51
18850;BME280;4989;48.772;9.154;2023-05-08T12:27:24;98377.75;;;27.16;65.95
18850;BME280;4989;48.772;9.154;2023-05-08T12:32:26;98384.44;;;29.46;56.64
18850;BME280;4989;48.772;9.154;2023-05-08T12:37:30;98382.22;;;28.91;55.57
18850;BME280;4989;48.772;9.154;2023-05-08T12:42:47;98385.31;;;27.21;60.44
18850;BME280;4989;48.772;9.154;2023-05-08T12:47:52;98374.03;;;24.59;70.65
18850;BME280;4989;48.772;9.154;2023-05-08T12:53:02;98374.75;;;23.81;73.86
18850;BME280;4989;48.772;9.154;2023-05-08T12:58:11;98371.50;;;24.61;70.43
18850;BME280;4989;48.772;9.154;2023-05-08T13:03:27;98371.50;;;24.05;72.80
18850;BME280;4989;48.772;9.154;2023-05-08T13:08:36;98372.22;;;23.77;75.21
18850;BME280;4989;48.772;9.154;2023-05-08T13:13:38;98372.75;;;23.70;76.09
18850;BME280;4989;48.772;9.154;2023-05-08T13:18:41;98357.53;;;23.54;77.11
18850;BME280;4989;48.772;9.154;2023-05-08T13:23:43;98360.19;;;23.15;74.02
18850;BME280;4989;48.772;9.154;2023-05-08T13:28:45;98365.47;;;22.70;76.40
18850;BME280;4989;48.772;9.154;2023-05-08T13:33:47;98368.72;;;22.69;82.42
18850;BME280;4989;48.772;9.154;2023-05-08T13:38:50;98363.81;;;22.47;86.57
18850;BME280;4989;48.772;9.154;2023-05-08T13:43:55;98352.34;;;22.28;86.23
18850;BME280;4989;48.772;9.154;2023-05-08T13:48:57;98347.13;;;22.09;88.79
18850;BME280;4989;48.772;9.154;2023-05-08T13:54:00;98334.13;;;21.89;89.39
18850;BME280;4989;48.772;9.154;2023-05-08T13:59:02;98333.97;;;21.72;91.39
18850;BME280;4989;48.772;9.154;2023-05-08T14:04:04;98337.03;;;21.54;92.32
18850;BME280;4989;48.772;9.154;2023-05-08T14:09:07;98348.91;;;21.55;90.96
18850;BME280;4989;48.772;9.154;2023-05-08T14:14:09;98351.00;;;21.39;90.89
18850;BME280;4989;48.772;9.154;2023-05-08T14:19:11;98345.72;;;21.41;90.73
18850;BME280;4989;48.772;9.154;2023-05-08T14:24:14;98346.34;;;21.31;91.28
18850;BME280;4989;48.772;9.154;2023-05-08T14:29:16;98344.34;;;20.70;100.00
18850;BME280;4989;48.772;9.154;2023-05-08T14:34:20;98345.75;;;19.71;100.00
18850;BME280;4989;48.772;9.154;2023-05-08T14:39:22;98347.97;;;19.57;100.00
18850;BME280;4989;48.772;9.154;2023-05-08T14:44:25;98350.53;;;19.85;100.00
18850;BME280;4989;48.772;9.154;2023-05-08T14:49:27;98353.00;;;19.83;100.00
18850;BME280;4989;48.772;9.154;2023-05-08T14:54:39;98353.94;;;20.09;100.00
18850;BME280;4989;48.772;9.154;2023-05-08T14:59:41;98344.38;;;20.40;100.00
18850;BME280;4989;48.772;9.154;2023-05-08T15:04:55;98340.72;;;20.64;100.00
18850;BME280;4989;48.772;9.154;2023-05-08T15:09:57;98344.72;;;20.63;100.00
18850;BME280;4989;48.772;9.154;2023-05-08T15:14:59;98345.13;;;20.55;100.00
18850;BME280;4989;48.772;9.154;2023-05-08T15:20:07;98340.09;;;20.74;100.00
18850;BME280;4989;48.772;9.154;2023-05-08T15:25:09;98339.56;;;21.11;98.30
18850;BME280;4989;48.772;9.154;2023-05-08T15:30:13;98344.03;;;21.29;97.19
18850;BME280;4989;48.772;9.154;2023-05-08T15:35:16;98346.97;;;21.40;93.30
18850;BME280;4989;48.772;9.154;2023-05-08T15:40:18;98346.50;;;21.68;94.14
18850;BME280;4989;48.772;9.154;2023-05-08T15:45:21;98334.66;;;21.93;91.01
18850;BME280;4989;48.772;9.154;2023-05-08T15:50:23;98345.81;;;22.31;88.60
18850;BME280;4989;48.772;9.154;2023-05-08T15:55:25;98344.13;;;22.13;86.96
18850;BME280;4989;48.772;9.154;2023-05-08T16:00:28;98341.66;;;21.89;87.77
18850;BME280;4989;48.772;9.154;2023-05-08T16:05:45;98347.59;;;21.76;89.73
18850;BME280;4989;48.772;9.154;2023-05-08T16:10:48;98352.47;;;21.61;88.45
18850;BME280;4989;48.772;9.154;2023-05-08T16:15:50;98346.22;;;21.66;89.91
18850;BME280;4989;48.772;9.154;2023-05-08T16:20:53;98339.66;;;21.63;88.47
18850;BME280;4989;48.772;9.154;2023-05-08T16:25:55;98357.34;;;21.45;88.63
18850;BME280;4989;48.772;9.154;2023-05-08T16:30:58;98361.03;;;21.37;89.55
18850;BME280;4989;48.772;9.154;2023-05-08T16:36:00;98361.97;;;21.34;90.67
18850;BME280;4989;48.772;9.154;2023-05-08T16:41:04;98350.75;;;21.22;91.17
18850;BME280;4989;48.772;9.154;2023-05-08T16:46:06;98357.59;;;21.27;92.15
18850;BME280;4989;48.772;9.154;2023-05-08T16:51:09;98352.78;;;21.22;92.52
18850;BME280;4989;48.772;9.154;2023-05-08T16:56:11;98352.03;;;21.21;94.83
18850;BME280;4989;48.772;9.154;2023-05-08T17:01:13;98356.50;;;21.19;96.29
18850;BME280;4989;48.772;9.154;2023-05-08T17:06:16;98356.44;;;21.13;96.09
18850;BME280;4989;48.772;9.154;2023-05-08T17:11:18;98359.47;;;20.95;97.71
18850;BME280;4989;48.772;9.154;2023-05-08T17:16:21;98353.28;;;19.85;100.00
18850;BME280;4989;48.772;9.154;2023-05-08T17:21:23;98363.53;;;19.31;100.00
18850;BME280;4989;48.772;9.154;2023-05-08T17:26:25;98357.09;;;19.63;100.00
18850;BME280;4989;48.772;9.154;2023-05-08T17:31:28;98368.41;;;20.04;100.00
18850;BME280;4989;48.772;9.154;2023-05-08T17:36:30;98367.25;;;20.11;100.00
18850;BME280;4989;48.772;9.154;2023-05-08T17:41:32;98372.97;;;20.07;100.00
18850;BME280;4989;48.772;9.154;2023-05-08T17:46:35;98377.25;;;19.40;100.00
18850;BME280;4989;48.772;9.154;2023-05-08T17:51:37;98376.91;;;18.99;100.00
18850;BME280;4989;48.772;9.154;2023-05-08T17:56:39;98385.81;;;18.94;100.00
18850;BME280;4989;48.772;9.154;2023-05-08T18:01:41;98385.75;;;18.79;100.00
18850;BME280;4989;48.772;9.154;2023-05-08T18:06:44;98386.22;;;18.68;100.00
18850;BME280;4989;48.772;9.154;2023-05-08T18:11:49;98380.97;;;18.46;100.00
18850;BME280;4989;48.772;9.154;2023-05-08T18:16:51;98386.09;;;18.20;100.00
18850;BME280;4989;48.772;9.154;2023-05-08T18:21:53;98390.09;;;18.19;100.00
18850;BME280;4989;48.772;9.154;2023-05-08T18:26:56;98384.91;;;18.12;100.00
18850;BME280;4989;48.772;9.154;2023-05-08T18:31:58;98391.19;;;17.94;100.00
18850;BME280;4989;48.772;9.154;2023-05-08T18:37:00;98387.34;;;18.19;100.00
18850;BME280;4989;48.772;9.154;2023-05-08T18:42:02;98385.78;;;18.18;100.00
18850;BME280;4989;48.772;9.154;2023-05-08T18:47:06;98387.31;;;18.28;100.00
18850;BME280;4989;48.772;9.154;2023-05-08T18:52:08;98381.19;;;18.24;100.00
18850;BME280;4989;48.772;9.154;2023-05-08T18:57:19;98386.38;;;18.31;100.00
18850;BME280;4989;48.772;9.154;2023-05-08T19:02:22;98391.31;;;18.09;100.00
18850;BME280;4989;48.772;9.154;2023-05-08T19:07:29;98396.25;;;17.87;100.00
18850;BME280;4989;48.772;9.154;2023-05-08T19:12:31;98397.78;;;17.78;100.00
18850;BME280;4989;48.772;9.154;2023-05-08T19:17:33;98399.94;;;17.56;100.00
18850;BME280;4989;48.772;9.154;2023-05-08T19:22:38;98398.69;;;17.66;100.00
18850;BME280;4989;48.772;9.154;2023-05-08T19:27:40;98389.53;;;17.60;100.00
18850;BME280;4989;48.772;9.154;2023-05-08T19:32:42;98394.72;;;17.30;100.00
18850;BME280;4989;48.772;9.154;2023-05-08T19:37:45;98388.31;;;17.33;100.00
18850;BME280;4989;48.772;9.154;2023-05-08T19:42:47;98389.22;;;17.30;100.00
18850;BME280;4989;48.772;9.154;2023-05-08T19:47:50;98381.91;;;17.36;100.00
18850;BME280;4989;48.772;9.154;2023-05-08T19:52:52;98389.03;;;17.15;100.00
18850;BME280;4989;48.772;9.154;2023-05-08T19:57:54;98389.22;;;17.30;100.00
18850;BME280;4989;48.772;9.154;2023-05-08T20:02:56;98386.94;;;17.29;100.00
18850;BME280;4989;48.772;9.154;2023-05-08T20:07:59;98394.38;;;17.01;100.00
18850;BME280;4989;48.772;9.154;2023-05-08T20:13:01;98386.44;;;17.03;100.00
18850;BME280;4989;48.772;9.154;2023-05-08T20:18:04;98383.25;;;17.04;100.00
18850;BME280;4989;48.772;9.154;2023-05-08T20:23:06;98389.47;;;16.96;100.00
18850;BME280;4989;48.772;9.154;2023-05-08T20:28:08;98396.53;;;17.15;100.00
18850;BME280;4989;48.772;9.154;2023-05-08T20:33:11;98402.34;;;17.35;100.00
18850;BME280;4989;48.772;9.154;2023-05-08T20:38:13;98400.69;;;17.38;100.00
18850;BME280;4989;48.772;9.154;2023-05-08T20:43:16;98400.69;;;17.38;100.00
18850;BME280;4989;48.772;9.154;2023-05-08T20:48:20;98393.31;;;17.07;100.00
18850;BME280;4989;48.772;9.154;2023-05-08T20:53:23;98395.41;;;16.94;100.00
18850;BME280;4989;48.772;9.154;2023-05-08T20:58:25;98393.72;;;16.87;100.00
18850;BME280;4989;48.772;9.154;2023-05-08T21:03:28;98386.16;;;17.01;100.00
18850;BME280;4989;48.772;9.154;2023-05-08T21:08:30;98381.66;;;16.85;100.00
18850;BME280;4989;48.772;9.154;2023-05-08T21:13:32;98373.81;;;16.65;100.00
18850;BME280;4989;48.772;9.154;2023-05-08T21:18:35;98373.47;;;16.54;100.00
18850;BME280;4989;48.772;9.154;2023-05-08T21:23:37;98375.56;;;16.81;100.00
18850;BME280;4989;48.772;9.154;2023-05-08T21:28:39;98372.25;;;17.04;100.00
18850;BME280;4989;48.772;9.154;2023-05-08T21:33:42;98368.78;;;17.31;100.00
18850;BME280;4989;48.772;9.154;2023-05-08T21:38:44;98368.47;;;17.38;100.00
18850;BME280;4989;48.772;9.154;2023-05-08T21:43:47;98374.16;;;16.76;100.00
18850;BME280;4989;48.772;9.154;2023-05-08T21:48:49;98372.34;;;16.82;100.00
18850;BME280;4989;48.772;9.154;2023-05-08T21:53:52;98372.59;;;16.66;100.00
18850;BME280;4989;48.772;9.154;2023-05-08T21:58:54;98372.34;;;16.42;100.00
18850;BME280;4989;48.772;9.154;2023-05-08T22:03:56;98370.63;;;16.26;100.00
18850;BME280;4989;48.772;9.154;2023-05-08T22:08:59;98372.47;;;16.29;100.00
18850;BME280;4989;48.772;9.154;2023-05-08T22:14:01;98371.06;;;16.24;100.00
18850;BME280;4989;48.772;9.154;2023-05-08T22:19:03;98369.34;;;16.18;100.00
18850;BME280;4989;48.772;9.154;2023-05-08T22:24:06;98373.03;;;16.24;100.00
18850;BME280;4989;48.772;9.154;2023-05-08T22:29:08;98362.63;;;16.50;100.00
18850;BME280;4989;48.772;9.154;2023-05-08T22:34:10;98355.81;;;16.64;100.00
18850;BME280;4989;48.772;9.154;2023-05-08T22:39:12;98361.53;;;16.38;100.00
18850;BME280;4989;48.772;9.154;2023-05-08T22:44:15;98352.63;;;16.65;100.00
18850;BME280;4989;48.772;9.154;2023-05-08T22:49:17;98340.16;;;16.74;100.00
18850;BME280;4989;48.772;9.154;2023-05-08T22:54:19;98338.06;;;16.87;100.00
18850;BME280;4989;48.772;9.154;2023-05-08T22:59:22;98331.22;;;17.10;100.00
18850;BME280;4989;48.772;9.154;2023-05-08T23:04:25;98326.94;;;17.00;100.00
18850;BME280;4989;48.772;9.154;2023-05-08T23:09:28;98310.59;;;16.78;100.00
18850;BME280;4989;48.772;9.154;2023-05-08T23:14:31;98310.44;;;16.81;100.00
18850;BME280;4989;48.772;9.154;2023-05-08T23:19:34;98293.69;;;16.88;100.00
18850;BME280;4989;48.772;9.154;2023-05-08T23:24:36;98294.44;;;16.39;100.00
18850;BME280;4989;48.772;9.154;2023-05-08T23:29:38;98290.75;;;16.24;100.00
18850;BME280;4989;48.772;9.154;2023-05-08T23:34:41;98284.56;;;16.01;100.00
18850;BME280;4989;48.772;9.154;2023-05-08T23:39:44;98287.56;;;15.94;100.00
18850;BME280;4989;48.772;9.154;2023-05-08T23:44:46;98284.16;;;15.81;100.00
18850;BME280;4989;48.772;9.154;2023-05-08T23:49:49;98281.63;;;15.65;100.00
18850;BME280;4989;48.772;9.154;2023-05-08T23:54:51;98269.06;;;15.54;100.00
18850;BME280;4989;48.772;9.154;2023-05-08T23:59:53;98278.25;;;15.61;100.00
